Upton, Utah
Current Conditions -  °F | °C
As of 11:53 AM on Monday 20 Oct 2014 (Local Time) from KEVW Reporting Station
Clear Clear  
Wind Chill: 62°   Ceiling: Unl
Heat Index: 62°   Visibility: 10mi
Dew Point: 32°   Wind: 10mph
Humidity: 32%   Direction: 210°SSW
Pressure: 30.19"   Gusts: NA
Location:  40.9431°N, 111.212°W
Report Text: KEVW 201753Z AUTO 21009KT 10SM CLR 17/00 A3019 RMK AO2 SLP154 6//// T01670000 10167 20056 58002 TSNO
Loading
Personal Weather Stations






























Interactive Weather Map
Tropical Storm Tracking
New forecast layout! Learn more

10-Day Weather Forecast

Advertisements
Track Severe Weather on mobile